Flight Track Log - Related Links

Times and Time Zones

All times are in EDT time to prevent confusion due to time zone crossing. See the N244A flight status page for this flight to view local times or setup timezone preferences in your user account.

Time Position Orientation Groundspeed Altitude Reporting Facility
EDT Latitude Longitude Course Direction KTS MPH feet Rate Location/Type
Sat 09:23:28 AM 26.2569 -81.7628 338° Northwest 247 284 7,000  Level Miami Center
Sat 09:24:28 AM 26.2667 -81.8489 277° West 249 287 9,800 2,050 Climbing Miami Center
Sat 09:25:28 AM 26.2778 -81.9511 277° West 310 357 11,100 1,800 Climbing Miami Center
Sat 09:26:28 AM 26.3178 -82.0572 293° West 349 402 13,400 1,500 Climbing Miami Center
Sat 09:27:00 AM 26.2410 -82.4095 338° Northwest  Level FlightAware Approximate
Sat 09:27:28 AM 26.3789 -82.1619 303° West 375 432 14,100  Level Miami Center
Sat 09:28:00 AM 26.3475 -82.4579 338° Northwest  Level FlightAware Approximate
Sat 09:28:28 AM 26.4658 -82.2375 322° Northwest 392 451 16,200  Level Miami Center
Sat 09:29:28 AM 26.5681 -82.2956 333° Northwest 401 461 17,800 1,700 Climbing Miami Center
Sat 09:30:28 AM 26.6761 -82.3589 332° Northwest 420 483 19,600 1,800 Climbing Miami Center
Sat 09:31:28 AM 26.7844 -82.4242 332° Northwest 432 497 21,400 1,800 Climbing Miami Center
Sat 09:32:28 AM 26.8883 -82.4850 332° Northwest 432 497 23,200 1,500 Climbing Miami Center
Sat 09:33:28 AM 27.0006 -82.5533 332° Northwest 427 491 24,400 1,000 Climbing Miami Center
Sat 09:34:28 AM 27.1086 -82.6147 333° Northwest 432 497 25,200 900 Climbing Miami Center
Sat 09:35:28 AM 27.2189 -82.6808 332° Northwest 443 510 26,200 1,000 Climbing Miami Center
Sat 09:36:28 AM 27.3369 -82.7500 333° Northwest 438 504 27,200 1,000 Climbing Miami Center
Sat 09:36:28 AM 27.3369 -82.7500 333° Northwest 438 504 27,200 800 Level Miami Center
Sat 09:37:28 AM 27.4511 -82.8167 333° Northwest 452 520 28,000 800 Climbing Miami Center
Sat 09:37:28 AM 27.4511 -82.8167 333° Northwest 452 520 28,000 900 Level Miami Center
Sat 09:38:28 AM 27.5611 -82.8831 332° Northwest 447 514 28,900 900 Climbing Miami Center
Sat 09:38:28 AM 27.5611 -82.8831 332° Northwest 447 514 28,900 800 Level Miami Center
Sat 09:39:28 AM 27.6750 -82.9522 332° Northwest 453 521 29,700 800 Climbing Miami Center
Sat 09:39:28 AM 27.6750 -82.9522 332° Northwest 453 521 29,700 908 Level Miami Center
Sat 09:41:27 AM 27.8972 -83.0850 332° Northwest 446 513 31,500 908 Climbing Jacksonville Center
Sat 09:41:27 AM 27.8972 -83.0850 332° Northwest 446 513 31,500 900 Level Jacksonville Center
Sat 09:42:27 AM 28.0119 -83.1300 341° North 446 513 32,400 900 Climbing Jacksonville Center
Sat 09:42:27 AM 28.0119 -83.1300 341° North 446 513 32,400 800 Level Jacksonville Center
Sat 09:43:27 AM 28.1289 -83.1019 12° North 418 481 33,200 800 Climbing Jacksonville Center
Sat 09:43:27 AM 28.1289 -83.1019 12° North 418 481 33,200 900 Level Jacksonville Center
Sat 09:44:27 AM 28.2417 -83.0622 17° North 418 481 34,100 900 Climbing Jacksonville Center
Sat 09:44:27 AM 28.2417 -83.0622 17° North 418 481 34,100 600 Level Jacksonville Center
Sat 09:45:27 AM 28.3564 -83.0247 16° North 418 481 34,700 600 Climbing Jacksonville Center
Sat 09:45:27 AM 28.3564 -83.0247 16° North 418 481 34,700 700 Level Jacksonville Center
Sat 09:46:27 AM 28.4650 -82.9775 21° North 418 481 35,400 700 Climbing Jacksonville Center
Sat 09:46:27 AM 28.4650 -82.9775 21° North 418 481 35,400 600 Level Jacksonville Center
Sat 09:47:27 AM 28.5756 -82.9422 16° North 413 475 36,000 600 Climbing Jacksonville Center
Sat 09:47:27 AM 28.5756 -82.9422 16° North 413 475 36,000  Level Jacksonville Center
Sat 09:48:27 AM 28.6653 -82.9092 18° North 413 475 36,000  Level Jacksonville Center
Sat 09:48:27 AM 28.6653 -82.9092 18° North 413 475 36,000  Level Jacksonville Center
Sat 09:49:27 AM 28.8011 -82.8594 18° North 418 481 36,000  Level Jacksonville Center
Sat 09:49:27 AM 28.8011 -82.8594 18° North 418 481 36,000  Level Jacksonville Center
Sat 09:50:27 AM 28.9178 -82.8167 18° North 423 487 36,000  Level Jacksonville Center
Sat 09:50:27 AM 28.9178 -82.8167 18° North 423 487 36,000  Level Jacksonville Center
Sat 09:51:27 AM 29.0347 -82.7761 17° North 428 493 36,000  Level Jacksonville Center
Sat 09:51:27 AM 29.0347 -82.7761 17° North 428 493 36,000  Level Jacksonville Center
Sat 09:52:27 AM 29.1517 -82.7333 18° North 428 493 36,000  Level Jacksonville Center
Sat 09:52:27 AM 29.1517 -82.7333 18° North 428 493 36,000  Level Jacksonville Center
Sat 09:53:27 AM 29.2706 -82.6925 17° North 433 498 36,000  Level Jacksonville Center
Sat 09:53:27 AM 29.2706 -82.6925 17° North 433 498 36,000  Level Jacksonville Center
Sat 09:54:27 AM 29.3894 -82.6472 18° North 438 504 36,000  Level Jacksonville Center
Sat 09:54:27 AM 29.3894 -82.6472 18° North 438 504 36,000  Level Jacksonville Center
Sat 09:55:27 AM 29.5064 -82.6061 17° North 438 504 36,000  Level Jacksonville Center
Sat 09:55:27 AM 29.5064 -82.6061 17° North 438 504 36,000 300 Level Jacksonville Center
Sat 09:56:27 AM 29.6253 -82.5628 18° North 438 504 36,300 300 Climbing Jacksonville Center
Sat 09:56:27 AM 29.6253 -82.5628 18° North 438 504 36,300 200 Level Jacksonville Center
Sat 09:57:27 AM 29.7419 -82.5217 17° North 438 504 36,500 200 Climbing Jacksonville Center
Sat 09:57:27 AM 29.7419 -82.5217 17° North 438 504 36,500 300 Level Jacksonville Center
Sat 09:58:27 AM 29.8567 -82.4783 18° North 438 504 36,800 300 Climbing Jacksonville Center
Sat 09:58:27 AM 29.8567 -82.4783 18° North 438 504 36,800 200 Level Jacksonville Center
Sat 09:59:27 AM 29.9714 -82.4369 17° North 433 498 37,000 200 Climbing Jacksonville Center
Sat 09:59:27 AM 29.9714 -82.4369 17° North 433 498 37,000  Level Jacksonville Center
Sat 10:00:27 AM 30.0861 -82.4006 15° North 428 493 37,000  Level Jacksonville Center
Sat 10:00:27 AM 30.0861 -82.4006 15° North 428 493 37,000  Level Jacksonville Center
Sat 10:01:27 AM 30.2006 -82.3567 18° North 428 493 37,000  Level Jacksonville Center
Sat 10:01:27 AM 30.2006 -82.3567 18° North 428 493 37,000  Level Jacksonville Center
Sat 10:02:27 AM 30.3050 -82.3153 19° North 434 499 37,000  Level Jacksonville Center
Sat 10:02:27 AM 30.3050 -82.3153 19° North 434 499 37,000  Level Jacksonville Center
Sat 10:03:27 AM 30.4217 -82.2711 18° North 439 505 37,000  Level Jacksonville Center
Sat 10:03:27 AM 30.4217 -82.2711 18° North 439 505 37,000  Level Jacksonville Center
Sat 10:04:27 AM 30.5383 -82.2294 17° North 439 505 37,000  Level Jacksonville Center
Sat 10:04:27 AM 30.5383 -82.2294 17° North 439 505 37,000  Level Jacksonville Center
Sat 10:05:27 AM 30.6572 -82.1922 15° North 439 505 37,000  Level Jacksonville Center
Sat 10:05:27 AM 30.6572 -82.1922 15° North 439 505 37,000  Level Jacksonville Center
Sat 10:06:27 AM 30.7739 -82.1478 18° North 439 505 37,000  Level Jacksonville Center
Sat 10:06:27 AM 30.7739 -82.1478 18° North 439 505 37,000  Level Jacksonville Center
Sat 10:07:27 AM 30.8906 -82.1033 18° North 439 505 37,000  Level Jacksonville Center
Sat 10:07:27 AM 30.8906 -82.1033 18° North 439 505 37,000  Level Jacksonville Center
Sat 10:08:27 AM 31.0092 -82.0611 17° North 439 505 37,000  Level Jacksonville Center
Sat 10:08:27 AM 31.0092 -82.0611 17° North 439 505 37,000  Level Jacksonville Center
Sat 10:09:27 AM 31.1258 -82.0189 17° North 439 505 37,000  Level Jacksonville Center
Sat 10:09:27 AM 31.1258 -82.0189 17° North 439 505 37,000  Level Jacksonville Center
Sat 10:10:27 AM 31.2467 -81.9789 16° North 439 505 37,000  Level Jacksonville Center
Sat 10:10:27 AM 31.2467 -81.9789 16° North 439 505 37,000  Level Jacksonville Center
Sat 10:11:27 AM 31.3844 -81.9678 North 439 505 37,000  Level Jacksonville Center
Sat 10:11:27 AM 31.3844 -81.9678 North 439 505 37,000  Level Jacksonville Center
Sat 10:12:27 AM 31.4950 -81.9642 North 439 505 37,000  Level Jacksonville Center
Sat 10:12:27 AM 31.4950 -81.9642 North 439 505 37,000  Level Jacksonville Center
Sat 10:13:27 AM 31.6328 -81.9531 North 444 511 37,000  Level Jacksonville Center
Sat 10:13:27 AM 31.6328 -81.9531 North 444 511 37,000  Level Jacksonville Center
Sat 10:14:27 AM 31.7453 -81.9372 North 444 511 37,000  Level Jacksonville Center
Sat 10:14:27 AM 31.7453 -81.9372 North 444 511 37,000  Level Jacksonville Center
Sat 10:15:27 AM 31.8831 -81.9211 North 444 511 37,000  Level Jacksonville Center
Sat 10:15:27 AM 31.8831 -81.9211 North 444 511 37,000  Level Jacksonville Center
Sat 10:16:27 AM 32.0103 -81.9125 North 458 527 37,000  Level Jacksonville Center
Sat 10:16:27 AM 32.0103 -81.9125 North 458 527 37,000  Level Jacksonville Center
Sat 10:17:27 AM 32.1208 -81.8917 North 458 527 37,000  Level Jacksonville Center
Sat 10:17:27 AM 32.1208 -81.8917 North 458 527 37,000  Level Jacksonville Center
Sat 10:18:27 AM 32.2539 -81.8411 18° North 448 516 37,000  Level Jacksonville Center
Sat 10:18:27 AM 32.2539 -81.8411 18° North 448 516 37,000  Level Jacksonville Center
Sat 10:19:27 AM 32.3747 -81.7856 21° North 453 521 37,000  Level Jacksonville Center
Sat 10:19:27 AM 32.3747 -81.7856 21° North 453 521 37,000  Level Jacksonville Center
Sat 10:20:27 AM 32.4808 -81.7400 20° North 453 521 37,000  Level Jacksonville Center
Sat 10:20:27 AM 32.4808 -81.7400 20° North 453 521 37,000  Level Jacksonville Center
Sat 10:21:27 AM 32.6117 -81.6792 21° North 453 521 37,000  Level Jacksonville Center
Sat 10:21:27 AM 32.6117 -81.6792 21° North 453 521 37,000  Level Jacksonville Center
Sat 10:22:27 AM 32.7300 -81.6233 22° Northeast 448 516 37,000  Level Jacksonville Center
Sat 10:22:27 AM 32.7300 -81.6233 22° Northeast 448 516 37,000  Level Jacksonville Center
Sat 10:23:27 AM 32.8486 -81.5697 21° North 448 516 37,000  Level Jacksonville Center
Sat 10:23:27 AM 32.8486 -81.5697 21° North 448 516 37,000  Level Jacksonville Center
Sat 10:24:27 AM 32.9669 -81.5158 21° North 448 516 37,000  Level Jacksonville Center
Sat 10:24:27 AM 32.9669 -81.5158 21° North 448 516 37,000  Level Jacksonville Center
Sat 10:25:27 AM 33.0875 -81.4619 21° North 448 516 37,000  Level Jacksonville Center
Sat 10:25:27 AM 33.0875 -81.4619 21° North 448 516 37,000  Level Jacksonville Center
Sat 10:26:27 AM 33.2058 -81.4056 22° Northeast 448 516 37,000  Level Jacksonville Center
Sat 10:26:27 AM 33.2058 -81.4056 22° Northeast 448 516 37,000  Level Jacksonville Center
Sat 10:27:27 AM 33.3261 -81.3514 21° North 448 516 37,000  Level Jacksonville Center
Sat 10:27:27 AM 33.3261 -81.3514 21° North 448 516 37,000  Level Jacksonville Center
Sat 10:28:27 AM 33.4444 -81.2969 21° North 448 516 37,000  Level Jacksonville Center
Sat 10:28:27 AM 33.4444 -81.2969 21° North 448 516 37,000  Level Jacksonville Center
Sat 10:29:27 AM 33.5628 -81.2425 21° North 448 516 37,000  Level Jacksonville Center
Sat 10:29:27 AM 33.5628 -81.2425 21° North 448 516 37,000  Level Jacksonville Center
Sat 10:30:27 AM 33.6831 -81.1878 21° North 448 516 37,000  Level Jacksonville Center
Sat 10:30:27 AM 33.6831 -81.1878 21° North 448 516 37,000  Level Jacksonville Center
Sat 10:31:27 AM 33.8011 -81.1256 24° Northeast 453 521 37,000  Level Jacksonville Center
Sat 10:31:27 AM 33.8011 -81.1256 24° Northeast 453 521 37,000  Level Jacksonville Center
Sat 10:32:27 AM 33.9214 -81.0706 21° North 453 521 37,000  Level Jacksonville Center
Sat 10:32:27 AM 33.9214 -81.0706 21° North 453 521 37,000  Level Jacksonville Center
Sat 10:34:18 AM 34.1400 -80.9669 21° North 452 520 37,000  Level Atlanta Center
Sat 10:34:18 AM 34.1400 -80.9669 21° North 452 520 37,000  Level Atlanta Center
Sat 10:35:18 AM 34.2639 -80.9144 19° North 451 519 37,000  Level Atlanta Center
Sat 10:35:18 AM 34.2639 -80.9144 19° North 451 519 37,000  Level Atlanta Center
Sat 10:36:18 AM 34.3811 -80.8547 23° Northeast 451 519 37,000  Level Atlanta Center
Sat 10:36:18 AM 34.3811 -80.8547 23° Northeast 451 519 37,000  Level Atlanta Center
Sat 10:37:18 AM 34.5008 -80.8000 21° North 462 532 37,000  Level Atlanta Center
Sat 10:37:18 AM 34.5008 -80.8000 21° North 462 532 37,000  Level Atlanta Center
Sat 10:38:18 AM 34.6225 -80.7422 21° North 462 532 37,000  Level Atlanta Center
Sat 10:38:18 AM 34.6225 -80.7422 21° North 462 532 37,000  Level Atlanta Center
Sat 10:39:18 AM 34.7419 -80.6844 22° Northeast 467 537 37,000  Level Atlanta Center
Sat 10:39:18 AM 34.7419 -80.6844 22° Northeast 467 537 37,000  Level Atlanta Center
Sat 10:40:18 AM 34.8653 -80.6239 22° Northeast 462 532 37,000  Level Atlanta Center
Sat 10:40:18 AM 34.8653 -80.6239 22° Northeast 462 532 37,000  Level Atlanta Center
Sat 10:41:18 AM 34.9847 -80.5683 21° North 470 541 37,000  Level Atlanta Center
Sat 10:41:18 AM 34.9847 -80.5683 21° North 470 541 37,000  Level Atlanta Center
Sat 10:42:18 AM 35.0917 -80.5131 23° Northeast 464 534 37,000  Level Atlanta Center
Sat 10:42:18 AM 35.0917 -80.5131 23° Northeast 464 534 37,000  Level Atlanta Center
Sat 10:43:18 AM 35.2153 -80.4542 21° North 469 540 37,000  Level Atlanta Center
Sat 10:43:18 AM 35.2153 -80.4542 21° North 469 540 37,000  Level Atlanta Center
Sat 10:44:18 AM 35.3367 -80.3956 21° North 469 540 37,000  Level Atlanta Center
Sat 10:44:18 AM 35.3367 -80.3956 21° North 469 540 37,000  Level Atlanta Center
Sat 10:45:18 AM 35.4581 -80.3367 22° Northeast 464 534 37,000  Level Atlanta Center
Sat 10:45:18 AM 35.4581 -80.3367 22° Northeast 464 534 37,000  Level Atlanta Center
Sat 10:46:18 AM 35.5772 -80.2775 22° Northeast 464 534 37,000  Level Atlanta Center
Sat 10:46:18 AM 35.5772 -80.2775 22° Northeast 464 534 37,000  Level Atlanta Center
Sat 10:48:05 AM 35.8056 -80.1664 22° Northeast 486 559 37,000  Level Washington Center
Sat 10:48:05 AM 35.8056 -80.1664 22° Northeast 486 559 37,000  Level Washington Center
Sat 10:49:05 AM 35.9228 -80.1064 23° Northeast 471 542 37,000  Level Washington Center
Sat 10:49:05 AM 35.9228 -80.1064 23° Northeast 471 542 37,000  Level Washington Center
Sat 10:50:06 AM 36.0458 -80.0517 20° North 465 535 37,000  Level Washington Center
Sat 10:50:06 AM 36.0458 -80.0517 20° North 465 535 37,000  Level Washington Center
Sat 10:51:04 AM 36.1669 -79.9942 21° North 459 528 37,000  Level Washington Center
Sat 10:51:04 AM 36.1669 -79.9942 21° North 459 528 37,000  Level Washington Center
Sat 10:52:04 AM 36.2900 -79.9342 21° North 459 528 37,000  Level Washington Center
Sat 10:52:04 AM 36.2900 -79.9342 21° North 459 528 37,000  Level Washington Center
Sat 10:53:05 AM 36.4092 -79.8711 23° Northeast 459 528 37,000  Level Washington Center
Sat 10:53:05 AM 36.4092 -79.8711 23° Northeast 459 528 37,000  Level Washington Center
Sat 10:54:05 AM 36.5283 -79.8106 22° Northeast 459 528 37,000  Level Washington Center
Sat 10:54:05 AM 36.5283 -79.8106 22° Northeast 459 528 37,000  Level Washington Center
Sat 10:55:06 AM 36.6514 -79.7472 22° Northeast 464 534 37,000  Level Washington Center
Sat 10:55:06 AM 36.6514 -79.7472 22° Northeast 464 534 37,000  Level Washington Center
Sat 10:56:06 AM 36.7703 -79.6886 22° Northeast 464 534 37,000  Level Washington Center
Sat 10:56:06 AM 36.7703 -79.6886 22° Northeast 464 534 37,000  Level Washington Center
Sat 10:57:05 AM 36.8808 -79.6297 23° Northeast 464 534 37,000  Level Washington Center
Sat 10:57:05 AM 36.8808 -79.6297 23° Northeast 464 534 37,000  Level Washington Center
Sat 10:58:06 AM 37.0039 -79.5711 21° North 464 534 37,000  Level Washington Center
Sat 10:58:06 AM 37.0039 -79.5711 21° North 464 534 37,000  Level Washington Center
Sat 10:59:04 AM 37.1247 -79.5069 23° Northeast 464 534 37,000  Level Washington Center
Sat 10:59:04 AM 37.1247 -79.5069 23° Northeast 464 534 37,000  Level Washington Center
Sat 11:00:05 AM 37.2564 -79.4381 23° Northeast 464 534 37,000  Level Washington Center
Sat 11:00:05 AM 37.2564 -79.4381 23° Northeast 464 534 37,000  Level Washington Center
Sat 11:01:05 AM 37.3775 -79.3711 24° Northeast 464 534 37,000  Level Washington Center
Sat 11:01:05 AM 37.3775 -79.3711 24° Northeast 464 534 37,000  Level Washington Center
Sat 11:02:06 AM 37.5125 -79.3175 17° North 484 557 37,000  Level Washington Center
Sat 11:02:06 AM 37.5125 -79.3175 17° North 484 557 37,000  Level Washington Center
Sat 11:03:04 AM 37.6336 -79.2500 24° Northeast 484 557 37,000  Level Washington Center
Sat 11:03:04 AM 37.6336 -79.2500 24° Northeast 484 557 37,000  Level Washington Center
Sat 11:04:05 AM 37.7567 -79.1850 23° Northeast 477 549 37,000  Level Washington Center
Sat 11:04:05 AM 37.7567 -79.1850 23° Northeast 477 549 37,000  Level Washington Center
Sat 11:05:06 AM 37.8817 -79.1200 22° Northeast 482 555 37,000  Level Washington Center
Sat 11:05:06 AM 37.8817 -79.1200 22° Northeast 482 555 37,000  Level Washington Center
Sat 11:06:04 AM 38.0064 -79.0600 21° North 482 555 37,000  Level Washington Center
Sat 11:06:04 AM 38.0064 -79.0600 21° North 482 555 37,000  Level Washington Center
Sat 11:07:04 AM 38.1353 -79.0025 19° North 482 555 37,000  Level Washington Center
Sat 11:07:04 AM 38.1353 -79.0025 19° North 482 555 37,000  Level Washington Center
Sat 11:08:04 AM 38.2472 -78.9494 20° North 477 549 37,000  Level Washington Center
Sat 11:08:04 AM 38.2472 -78.9494 20° North 477 549 37,000  Level Washington Center
Sat 11:09:05 AM 38.3719 -78.8917 20° North 472 543 37,000  Level Washington Center
Sat 11:09:05 AM 38.3719 -78.8917 20° North 472 543 37,000  Level Washington Center
Sat 11:10:05 AM 38.4967 -78.8308 21° North 472 543 37,000  Level Washington Center
Sat 11:10:05 AM 38.4967 -78.8308 21° North 472 543 37,000  Level Washington Center
Sat 11:11:06 AM 38.6317 -78.7650 21° North 472 543 37,000  Level Washington Center
Sat 11:11:06 AM 38.6317 -78.7650 21° North 472 543 37,000  Level Washington Center
Sat 11:12:04 AM 38.7583 -78.7064 20° North 472 543 37,000  Level Washington Center
Sat 11:12:04 AM 38.7583 -78.7064 20° North 472 543 37,000  Level Washington Center
Sat 11:13:05 AM 38.8872 -78.6453 20° North 472 543 37,000  Level Washington Center
Sat 11:13:05 AM 38.8872 -78.6453 20° North 472 543 37,000  Level Washington Center
Sat 11:14:06 AM 39.0139 -78.5836 21° North 477 549 37,000  Level Washington Center
Sat 11:14:06 AM 39.0139 -78.5836 21° North 477 549 37,000  Level Washington Center
Sat 11:15:04 AM 39.1403 -78.5247 20° North 477 549 37,000  Level Washington Center
Sat 11:15:04 AM 39.1403 -78.5247 20° North 477 549 37,000  Level Washington Center
Sat 11:16:36 AM 39.3400 -78.4278 21° North 496 571 37,000  Level Cleveland Center
Sat 11:16:36 AM 39.3400 -78.4278 21° North 496 571 37,000  Level Cleveland Center
Sat 11:17:36 AM 39.4703 -78.3647 20° North 496 571 37,000  Level Cleveland Center
Sat 11:17:36 AM 39.4703 -78.3647 20° North 496 571 37,000  Level Cleveland Center
Sat 11:18:36 AM 39.5817 -78.3072 22° Northeast 491 565 37,000  Level Cleveland Center
Sat 11:18:36 AM 39.5817 -78.3072 22° Northeast 491 565 37,000  Level Cleveland Center
Sat 11:19:36 AM 39.7136 -78.2433 20° North 491 565 37,000  Level Cleveland Center
Sat 11:19:36 AM 39.7136 -78.2433 20° North 491 565 37,000  Level Cleveland Center
Sat 11:25:39 AM 40.5039 -77.8464 21° North 488 562 37,000  Level New York Center
Sat 11:26:40 AM 40.6350 -77.7806 21° North 488 562 37,000  Level New York Center
Sat 11:27:40 AM 40.7639 -77.7144 21° North 488 562 37,000 -500 Level New York Center
Sat 11:28:40 AM 40.8950 -77.6481 21° North 488 562 36,000 -992 Descending New York Center
Sat 11:29:41 AM 41.0283 -77.5789 21° North 498 573 35,000 -958 Descending New York Center
Sat 11:30:39 AM 41.1633 -77.5125 20° North 504 580 34,100 -915 Descending New York Center
Sat 11:31:39 AM 41.2961 -77.4458 21° North 509 586 33,200 -545 Descending New York Center
Sat 11:32:40 AM 41.4292 -77.3814 20° North 509 586 33,000 -99 Descending New York Center
Sat 11:33:40 AM 41.5514 -77.3158 22° Northeast 509 586 33,000  Level New York Center
Sat 11:34:41 AM 41.6822 -77.2453 22° Northeast 504 580 33,000 -504 Level New York Center
Sat 11:35:39 AM 41.8156 -77.1719 22° Northeast 504 580 32,000 -992 Descending New York Center
Sat 11:36:48 AM 41.9819 -77.0856 21° North 512 589 30,900 -977 Descending Cleveland Center
Sat 11:37:48 AM 42.1069 -77.0200 21° North 507 583 29,900 -750 Descending Cleveland Center
Sat 11:39:20 AM 42.3247 -76.9114 20° North 521 600 29,000 -553 Descending Boston Center
Sat 11:40:20 AM 42.4631 -76.8397 21° North 521 600 28,500 -500 Descending Boston Center
Sat 11:41:20 AM 42.5992 -76.7703 21° North 521 600 28,000 -750 Descending Boston Center
Sat 11:42:20 AM 42.7375 -76.7008 20° North 521 600 27,000 -1,350 Descending Boston Center
Sat 11:43:20 AM 42.8714 -76.6336 20° North 521 600 25,300 -1,850 Descending Boston Center
Sat 11:44:20 AM 43.0008 -76.5686 20° North 508 585 23,300 -2,550 Descending Boston Center
Sat 11:45:20 AM 43.1264 -76.5003 22° Northeast 496 571 20,200 -3,000 Descending Boston Center
Sat 11:46:20 AM 43.2472 -76.4397 20° North 478 550 17,300 -2,773 Descending Boston Center
Sat 11:47:32 AM 43.3642 -76.3789 21° North 457 526 14,100 -2,926 Descending Boston Center
Sat 11:48:21 AM 43.4622 -76.3136 26° Northeast 409 471 11,400 -1,691 Descending Boston Center
Sat 11:49:22 AM 43.5619 -76.2628 20° North 335 386 11,000 -787 Descending Boston Center
Sat 11:50:23 AM 43.6461 -76.2422 10° North 308 354 9,800 -1,388 Descending Boston Center
Sat 11:51:23 AM 43.7242 -76.2758 343° North 291 335 8,200 -1,438 Descending Boston Center
Sat 11:52:24 AM 43.8008 -76.2922 351° North 262 302 6,900 -2,083 Descending Boston Center
Sat 11:53:24 AM 43.8667 -76.2533 23° Northeast 268 308 4,000 -2,016 Descending Boston Center
Sat 11:54:32 AM 43.9197 -76.1617 51° Northeast 236 272 2,600 -1,180 Descending Boston Center
Sat 11:55:26 AM 43.9422 -76.1081 60° Northeast 168 193 1,600 12,700 Descending Boston Center
Sat 11:56:32 AM 44.0111 -76.0431 34° Northeast 231 266 28,000 12,571 Climbing Boston Center
Sat 11:57:32 AM 44.0608 -75.9825 41° Northeast 231 266 28,000  Level Boston Center
Sat 11:58:32 AM 44.1000 -75.9328 42° Northeast 231 266 28,000  Level Boston Center
Sat 11:59:33 AM 44.1194 -75.9078 43° Northeast 231 266 28,000  Level Boston Center
Sat 12:01:32 PM 44.1194 -75.9078 20° North 231 266 28,000  Level Boston Center
Sat 12:04:00 PM 43.9919 -76.0207 212° Southwest  Level Estimated
Sat 12:11:00 PM 43.9919 -76.0207 115° Southeast  Level Estimated
Sat 12:12:00 PM 43.9919 -76.0207 115° Southeast  Level Estimated

Login

Don't have an account? Register now (free) for customized features, flight alerts, and more!